sensor_id;sensor_type;location;lat;lon;timestamp;pressure;altitude;pressure_sealevel;temperature;humidity
56174;BME280;42058;52.308;20.924;2022-07-06T00:02:07;100802.13;;;19.13;100.00
56174;BME280;42058;52.308;20.924;2022-07-06T00:04:33;100811.58;;;19.11;100.00
56174;BME280;42058;52.308;20.924;2022-07-06T00:06:59;100808.22;;;19.08;100.00
56174;BME280;42058;52.308;20.924;2022-07-06T00:09:26;100805.16;;;19.07;100.00
56174;BME280;42058;52.308;20.924;2022-07-06T00:11:52;100805.72;;;19.05;100.00
56174;BME280;42058;52.308;20.924;2022-07-06T00:14:18;100802.28;;;19.03;100.00
56174;BME280;42058;52.308;20.924;2022-07-06T00:16:44;100804.55;;;19.01;100.00
56174;BME280;42058;52.308;20.924;2022-07-06T00:19:10;100799.77;;;18.99;100.00
56174;BME280;42058;52.308;20.924;2022-07-06T00:21:36;100797.19;;;18.98;100.00
56174;BME280;42058;52.308;20.924;2022-07-06T00:24:03;100797.83;;;18.94;100.00
56174;BME280;42058;52.308;20.924;2022-07-06T00:26:29;100802.02;;;18.91;100.00
56174;BME280;42058;52.308;20.924;2022-07-06T00:28:55;100795.59;;;18.87;100.00
56174;BME280;42058;52.308;20.924;2022-07-06T00:31:22;100794.83;;;18.85;100.00
56174;BME280;42058;52.308;20.924;2022-07-06T00:33:48;100792.72;;;18.82;100.00
56174;BME280;42058;52.308;20.924;2022-07-06T00:36:14;100788.80;;;18.81;100.00
56174;BME280;42058;52.308;20.924;2022-07-06T00:38:40;100790.26;;;18.78;100.00
56174;BME280;42058;52.308;20.924;2022-07-06T00:41:07;100788.92;;;18.78;100.00
56174;BME280;42058;52.308;20.924;2022-07-06T00:43:51;100786.34;;;18.76;100.00
56174;BME280;42058;52.308;20.924;2022-07-06T00:46:25;100781.97;;;18.75;100.00
56174;BME280;42058;52.308;20.924;2022-07-06T00:48:53;100779.78;;;18.75;100.00
56174;BME280;42058;52.308;20.924;2022-07-06T00:51:30;100769.49;;;18.76;100.00
56174;BME280;42058;52.308;20.924;2022-07-06T00:54:00;100769.49;;;18.76;100.00
56174;BME280;42058;52.308;20.924;2022-07-06T00:56:30;100773.20;;;18.73;100.00
56174;BME280;42058;52.308;20.924;2022-07-06T00:59:02;100768.87;;;18.71;100.00
56174;BME280;42058;52.308;20.924;2022-07-06T01:01:26;100767.34;;;18.67;100.00
56174;BME280;42058;52.308;20.924;2022-07-06T01:03:52;100764.67;;;18.67;100.00
56174;BME280;42058;52.308;20.924;2022-07-06T01:06:18;100762.08;;;18.65;100.00
56174;BME280;42058;52.308;20.924;2022-07-06T01:08:44;100754.97;;;18.66;100.00
56174;BME280;42058;52.308;20.924;2022-07-06T01:11:11;100744.47;;;18.62;100.00
56174;BME280;42058;52.308;20.924;2022-07-06T01:13:38;100744.47;;;18.62;100.00
56174;BME280;42058;52.308;20.924;2022-07-06T01:16:04;100753.64;;;18.66;100.00
56174;BME280;42058;52.308;20.924;2022-07-06T01:18:32;100753.23;;;18.64;100.00
56174;BME280;42058;52.308;20.924;2022-07-06T01:21:13;100747.22;;;18.61;100.00
56174;BME280;42058;52.308;20.924;2022-07-06T01:23:45;100747.22;;;18.61;100.00
56174;BME280;42058;52.308;20.924;2022-07-06T01:26:18;100746.36;;;18.60;100.00
56174;BME280;42058;52.308;20.924;2022-07-06T01:28:47;100742.31;;;18.53;100.00
56174;BME280;42058;52.308;20.924;2022-07-06T01:31:23;100742.31;;;18.53;100.00
56174;BME280;42058;52.308;20.924;2022-07-06T01:33:52;100751.93;;;18.56;100.00
56174;BME280;42058;52.308;20.924;2022-07-06T01:36:20;100758.30;;;18.53;100.00
56174;BME280;42058;52.308;20.924;2022-07-06T01:38:54;100759.23;;;18.52;100.00
56174;BME280;42058;52.308;20.924;2022-07-06T01:41:23;100755.23;;;18.52;100.00
56174;BME280;42058;52.308;20.924;2022-07-06T01:43:49;100747.64;;;18.53;100.00
56174;BME280;42058;52.308;20.924;2022-07-06T01:46:16;100755.64;;;18.53;100.00
56174;BME280;42058;52.308;20.924;2022-07-06T01:48:42;100752.97;;;18.53;100.00
56174;BME280;42058;52.308;20.924;2022-07-06T01:51:08;100748.57;;;18.52;100.00
56174;BME280;42058;52.308;20.924;2022-07-06T01:53:35;100756.64;;;18.51;100.00
56174;BME280;42058;52.308;20.924;2022-07-06T01:56:03;100752.65;;;18.51;100.00
56174;BME280;42058;52.308;20.924;2022-07-06T01:58:30;100744.20;;;18.51;100.00
56174;BME280;42058;52.308;20.924;2022-07-06T02:00:56;100740.98;;;18.53;100.00
56174;BME280;42058;52.308;20.924;2022-07-06T02:03:23;100740.50;;;18.54;100.00
56174;BME280;42058;52.308;20.924;2022-07-06T02:05:49;100736.98;;;18.53;100.00
56174;BME280;42058;52.308;20.924;2022-07-06T02:08:15;100736.98;;;18.53;100.00
56174;BME280;42058;52.308;20.924;2022-07-06T02:10:41;100736.02;;;18.54;100.00
56174;BME280;42058;52.308;20.924;2022-07-06T02:13:08;100740.50;;;18.54;100.00
56174;BME280;42058;52.308;20.924;2022-07-06T02:15:34;100736.42;;;18.55;100.00
56174;BME280;42058;52.308;20.924;2022-07-06T02:18:00;100734.23;;;18.55;100.00
56174;BME280;42058;52.308;20.924;2022-07-06T02:20:26;100728.21;;;18.51;100.00
56174;BME280;42058;52.308;20.924;2022-07-06T02:22:52;100740.02;;;18.54;100.00
56174;BME280;42058;52.308;20.924;2022-07-06T02:25:18;100740.98;;;18.53;100.00
56174;BME280;42058;52.308;20.924;2022-07-06T02:27:44;100737.91;;;18.52;100.00
56174;BME280;42058;52.308;20.924;2022-07-06T02:30:11;100742.47;;;18.50;100.00
56174;BME280;42058;52.308;20.924;2022-07-06T02:32:38;100744.20;;;18.51;100.00
56174;BME280;42058;52.308;20.924;2022-07-06T02:35:05;100748.97;;;18.53;100.00
56174;BME280;42058;52.308;20.924;2022-07-06T02:37:31;100750.30;;;18.53;100.00
56174;BME280;42058;52.308;20.924;2022-07-06T02:39:57;100745.91;;;18.52;100.00
56174;BME280;42058;52.308;20.924;2022-07-06T02:42:25;100748.57;;;18.52;100.00
56174;BME280;42058;52.308;20.924;2022-07-06T02:44:54;100739.59;;;18.46;100.00
56174;BME280;42058;52.308;20.924;2022-07-06T02:47:20;100748.77;;;18.49;100.00
56174;BME280;42058;52.308;20.924;2022-07-06T02:49:47;100744.36;;;18.48;100.00
56174;BME280;42058;52.308;20.924;2022-07-06T02:52:13;100738.34;;;18.44;100.00
56174;BME280;42058;52.308;20.924;2022-07-06T02:54:40;100741.70;;;18.48;100.00
56174;BME280;42058;52.308;20.924;2022-07-06T02:57:06;100736.45;;;18.47;100.00
56174;BME280;42058;52.308;20.924;2022-07-06T02:59:32;100739.11;;;18.47;100.00
56174;BME280;42058;52.308;20.924;2022-07-06T03:01:58;100740.44;;;18.47;100.00
56174;BME280;42058;52.308;20.924;2022-07-06T03:04:25;100732.93;;;18.46;100.00
56174;BME280;42058;52.308;20.924;2022-07-06T03:06:51;100729.49;;;18.44;100.00
56174;BME280;42058;52.308;20.924;2022-07-06T03:09:18;100734.63;;;18.47;100.00
56174;BME280;42058;52.308;20.924;2022-07-06T03:11:44;100733.78;;;18.47;100.00
56174;BME280;42058;52.308;20.924;2022-07-06T03:14:11;100726.50;;;18.41;100.00
56174;BME280;42058;52.308;20.924;2022-07-06T03:16:38;100726.50;;;18.41;100.00
56174;BME280;42058;52.308;20.924;2022-07-06T03:19:04;100729.41;;;18.46;100.00
56174;BME280;42058;52.308;20.924;2022-07-06T03:21:30;100725.87;;;18.45;100.00
56174;BME280;42058;52.308;20.924;2022-07-06T03:23:56;100718.84;;;18.44;100.00
56174;BME280;42058;52.308;20.924;2022-07-06T03:26:24;100713.02;;;18.44;100.00
56174;BME280;42058;52.308;20.924;2022-07-06T03:28:50;100718.64;;;18.47;100.00
56174;BME280;42058;52.308;20.924;2022-07-06T03:31:17;100726.64;;;18.47;100.00
56174;BME280;42058;52.308;20.924;2022-07-06T03:33:43;100723.61;;;18.46;100.00
56174;BME280;42058;52.308;20.924;2022-07-06T03:36:09;100722.35;;;18.44;100.00
56174;BME280;42058;52.308;20.924;2022-07-06T03:38:36;100724.72;;;18.42;100.00
56174;BME280;42058;52.308;20.924;2022-07-06T03:41:03;100723.39;;;18.42;100.00
56174;BME280;42058;52.308;20.924;2022-07-06T03:43:29;100721.66;;;18.41;100.00
56174;BME280;42058;52.308;20.924;2022-07-06T03:45:56;100716.41;;;18.39;100.00
56174;BME280;42058;52.308;20.924;2022-07-06T03:48:22;100718.22;;;18.39;100.00
56174;BME280;42058;52.308;20.924;2022-07-06T03:50:49;100719.26;;;18.36;100.00
56174;BME280;42058;52.308;20.924;2022-07-06T03:53:15;100716.59;;;18.36;100.00
56174;BME280;42058;52.308;20.924;2022-07-06T03:55:42;100717.45;;;18.37;100.00
56174;BME280;42058;52.308;20.924;2022-07-06T03:58:09;100712.48;;;18.38;100.00
56174;BME280;42058;52.308;20.924;2022-07-06T04:00:37;100711.96;;;18.40;100.00
56174;BME280;42058;52.308;20.924;2022-07-06T04:03:04;100719.95;;;18.40;100.00
56174;BME280;42058;52.308;20.924;2022-07-06T04:05:32;100721.28;;;18.40;100.00
56174;BME280;42058;52.308;20.924;2022-07-06T04:07:58;100721.28;;;18.40;100.00
56174;BME280;42058;52.308;20.924;2022-07-06T04:10:26;100709.38;;;18.38;100.00
56174;BME280;42058;52.308;20.924;2022-07-06T04:12:53;100705.75;;;18.39;100.00
56174;BME280;42058;52.308;20.924;2022-07-06T04:15:19;100704.81;;;18.40;100.00
56174;BME280;42058;52.308;20.924;2022-07-06T04:17:45;100703.00;;;18.41;100.00
56174;BME280;42058;52.308;20.924;2022-07-06T04:20:18;100708.33;;;18.41;100.00
56174;BME280;42058;52.308;20.924;2022-07-06T04:22:47;100705.67;;;18.41;100.00
56174;BME280;42058;52.308;20.924;2022-07-06T04:25:14;100708.33;;;18.41;100.00
56174;BME280;42058;52.308;20.924;2022-07-06T04:27:40;100703.00;;;18.41;100.00
56174;BME280;42058;52.308;20.924;2022-07-06T04:30:08;100708.33;;;18.41;100.00
56174;BME280;42058;52.308;20.924;2022-07-06T04:32:35;100708.33;;;18.41;100.00
56174;BME280;42058;52.308;20.924;2022-07-06T04:35:03;100709.11;;;18.43;100.00
56174;BME280;42058;52.308;20.924;2022-07-06T04:37:30;100706.84;;;18.44;100.00
56174;BME280;42058;52.308;20.924;2022-07-06T04:39:57;100710.84;;;18.44;100.00
56174;BME280;42058;52.308;20.924;2022-07-06T04:42:23;100706.84;;;18.44;100.00
56174;BME280;42058;52.308;20.924;2022-07-06T04:44:50;100705.11;;;18.43;100.00
56174;BME280;42058;52.308;20.924;2022-07-06T04:47:18;100701.88;;;18.45;100.00
56174;BME280;42058;52.308;20.924;2022-07-06T04:49:44;100697.52;;;18.44;100.00
56174;BME280;42058;52.308;20.924;2022-07-06T04:52:12;100697.52;;;18.44;100.00
56174;BME280;42058;52.308;20.924;2022-07-06T04:54:38;100697.73;;;18.48;100.00
56174;BME280;42058;52.308;20.924;2022-07-06T04:57:04;100696.80;;;18.49;100.00
56174;BME280;42058;52.308;20.924;2022-07-06T04:59:31;100696.39;;;18.48;100.00
56174;BME280;42058;52.308;20.924;2022-07-06T05:01:58;100696.39;;;18.48;100.00
56174;BME280;42058;52.308;20.924;2022-07-06T05:04:24;100703.91;;;18.49;100.00
56174;BME280;42058;52.308;20.924;2022-07-06T05:06:50;100700.80;;;18.49;100.00
56174;BME280;42058;52.308;20.924;2022-07-06T05:09:17;100705.16;;;18.50;100.00
56174;BME280;42058;52.308;20.924;2022-07-06T05:11:44;100703.27;;;18.52;100.00
56174;BME280;42058;52.308;20.924;2022-07-06T05:14:11;100701.00;;;18.53;100.00
56174;BME280;42058;52.308;20.924;2022-07-06T05:16:37;100701.00;;;18.53;100.00
56174;BME280;42058;52.308;20.924;2022-07-06T05:19:03;100704.60;;;18.52;100.00
56174;BME280;42058;52.308;20.924;2022-07-06T05:21:30;100696.05;;;18.54;100.00
56174;BME280;42058;52.308;20.924;2022-07-06T05:23:56;100696.05;;;18.54;100.00
56174;BME280;42058;52.308;20.924;2022-07-06T05:26:22;100699.52;;;18.56;100.00
56174;BME280;42058;52.308;20.924;2022-07-06T05:28:48;100699.52;;;18.56;100.00
56174;BME280;42058;52.308;20.924;2022-07-06T05:31:16;100693.94;;;18.52;100.00
56174;BME280;42058;52.308;20.924;2022-07-06T05:33:42;100693.94;;;18.52;100.00
56174;BME280;42058;52.308;20.924;2022-07-06T05:36:08;100710.55;;;18.57;100.00
56174;BME280;42058;52.308;20.924;2022-07-06T05:38:35;100706.55;;;18.57;100.00
56174;BME280;42058;52.308;20.924;2022-07-06T05:41:01;100704.65;;;18.59;100.00
56174;BME280;42058;52.308;20.924;2022-07-06T05:43:27;100700.28;;;18.58;100.00
56174;BME280;42058;52.308;20.924;2022-07-06T05:45:54;100704.09;;;18.61;100.00
56174;BME280;42058;52.308;20.924;2022-07-06T05:48:21;100715.15;;;18.62;100.00
56174;BME280;42058;52.308;20.924;2022-07-06T05:51:07;100714.19;;;18.63;100.00
56174;BME280;42058;52.308;20.924;2022-07-06T05:53:34;100716.85;;;18.63;100.00
56174;BME280;42058;52.308;20.924;2022-07-06T05:56:00;100716.85;;;18.63;100.00
56174;BME280;42058;52.308;20.924;2022-07-06T05:58:27;100700.28;;;18.58;100.00
56174;BME280;42058;52.308;20.924;2022-07-06T06:00:53;100696.88;;;18.48;100.00
56174;BME280;42058;52.308;20.924;2022-07-06T06:03:20;100723.14;;;18.62;100.00
56174;BME280;42058;52.308;20.924;2022-07-06T06:05:47;100739.14;;;18.62;100.00
56174;BME280;42058;52.308;20.924;2022-07-06T06:08:15;100736.16;;;18.60;100.00
56174;BME280;42058;52.308;20.924;2022-07-06T06:10:41;100734.93;;;18.58;100.00
56174;BME280;42058;52.308;20.924;2022-07-06T06:13:09;100725.13;;;18.59;100.00
56174;BME280;42058;52.308;20.924;2022-07-06T06:15:35;100728.95;;;18.62;100.00
56174;BME280;42058;52.308;20.924;2022-07-06T06:18:02;100723.91;;;18.64;100.00
56174;BME280;42058;52.308;20.924;2022-07-06T06:20:29;100732.69;;;18.67;100.00
56174;BME280;42058;52.308;20.924;2022-07-06T06:22:57;100732.13;;;18.69;100.00
56174;BME280;42058;52.308;20.924;2022-07-06T06:25:35;100725.30;;;18.72;100.00
56174;BME280;42058;52.308;20.924;2022-07-06T06:28:04;100728.66;;;18.75;100.00
56174;BME280;42058;52.308;20.924;2022-07-06T06:30:32;100736.38;;;18.80;100.00
56174;BME280;42058;52.308;20.924;2022-07-06T06:33:16;100731.52;;;18.88;100.00
56174;BME280;42058;52.308;20.924;2022-07-06T06:35:45;100732.49;;;18.94;100.00
56174;BME280;42058;52.308;20.924;2022-07-06T06:38:15;100735.60;;;19.03;100.00
56174;BME280;42058;52.308;20.924;2022-07-06T06:40:42;100739.81;;;19.07;100.00
56174;BME280;42058;52.308;20.924;2022-07-06T06:43:09;100738.39;;;19.08;100.00
56174;BME280;42058;52.308;20.924;2022-07-06T06:45:38;100738.67;;;19.11;100.00
56174;BME280;42058;52.308;20.924;2022-07-06T06:48:04;100737.17;;;19.14;100.00
56174;BME280;42058;52.308;20.924;2022-07-06T06:50:30;100742.71;;;19.18;100.00
56174;BME280;42058;52.308;20.924;2022-07-06T06:52:56;100736.73;;;19.21;100.00
56174;BME280;42058;52.308;20.924;2022-07-06T06:55:22;100733.05;;;19.24;100.00
56174;BME280;42058;52.308;20.924;2022-07-06T06:57:49;100736.84;;;19.27;100.00
56174;BME280;42058;52.308;20.924;2022-07-06T07:00:15;100742.50;;;19.30;100.00
56174;BME280;42058;52.308;20.924;2022-07-06T07:02:42;100737.08;;;19.31;100.00
56174;BME280;42058;52.308;20.924;2022-07-06T07:05:09;100738.44;;;19.38;100.00
56174;BME280;42058;52.308;20.924;2022-07-06T07:07:35;100728.64;;;19.46;100.00
56174;BME280;42058;52.308;20.924;2022-07-06T07:10:04;100728.37;;;19.58;100.00
56174;BME280;42058;52.308;20.924;2022-07-06T07:12:31;100732.71;;;19.68;100.00
56174;BME280;42058;52.308;20.924;2022-07-06T07:14:59;100732.84;;;19.73;100.00
56174;BME280;42058;52.308;20.924;2022-07-06T07:17:26;100736.08;;;19.78;100.00
56174;BME280;42058;52.308;20.924;2022-07-06T07:19:52;100732.30;;;19.90;100.00
56174;BME280;42058;52.308;20.924;2022-07-06T07:22:18;100726.58;;;19.96;100.00
56174;BME280;42058;52.308;20.924;2022-07-06T07:24:44;100729.75;;;20.03;100.00
56174;BME280;42058;52.308;20.924;2022-07-06T07:27:10;100726.86;;;20.06;100.00
56174;BME280;42058;52.308;20.924;2022-07-06T07:29:36;100726.78;;;20.14;100.00
56174;BME280;42058;52.308;20.924;2022-07-06T07:32:03;100730.21;;;20.24;100.00
56174;BME280;42058;52.308;20.924;2022-07-06T07:34:29;100727.55;;;20.31;100.00
56174;BME280;42058;52.308;20.924;2022-07-06T07:36:55;100730.39;;;20.42;100.00
56174;BME280;42058;52.308;20.924;2022-07-06T07:39:22;100723.70;;;20.49;100.00
56174;BME280;42058;52.308;20.924;2022-07-06T07:41:48;100724.00;;;20.59;100.00
56174;BME280;42058;52.308;20.924;2022-07-06T07:44:16;100729.64;;;20.69;100.00
56174;BME280;42058;52.308;20.924;2022-07-06T07:46:42;100732.47;;;20.80;100.00
56174;BME280;42058;52.308;20.924;2022-07-06T07:49:09;100740.08;;;20.93;100.00
56174;BME280;42058;52.308;20.924;2022-07-06T07:51:35;100741.77;;;21.09;100.00
56174;BME280;42058;52.308;20.924;2022-07-06T07:54:01;100742.08;;;21.24;100.00
56174;BME280;42058;52.308;20.924;2022-07-06T07:56:27;100740.09;;;21.41;100.00
56174;BME280;42058;52.308;20.924;2022-07-06T07:58:53;100741.79;;;21.56;100.00
56174;BME280;42058;52.308;20.924;2022-07-06T08:01:25;100748.77;;;21.72;100.00
56174;BME280;42058;52.308;20.924;2022-07-06T08:03:52;100749.31;;;21.77;100.00
56174;BME280;42058;52.308;20.924;2022-07-06T08:06:20;100742.48;;;21.85;100.00
56174;BME280;42058;52.308;20.924;2022-07-06T08:08:50;100746.11;;;21.97;100.00
56174;BME280;42058;52.308;20.924;2022-07-06T08:11:16;100737.97;;;22.12;100.00
56174;BME280;42058;52.308;20.924;2022-07-06T08:13:42;100736.70;;;22.30;100.00
56174;BME280;42058;52.308;20.924;2022-07-06T08:16:08;100735.87;;;22.48;100.00
56174;BME280;42058;52.308;20.924;2022-07-06T08:18:36;100738.19;;;22.60;100.00
56174;BME280;42058;52.308;20.924;2022-07-06T08:21:03;100734.12;;;22.73;100.00
56174;BME280;42058;52.308;20.924;2022-07-06T08:23:29;100730.80;;;22.88;100.00
56174;BME280;42058;52.308;20.924;2022-07-06T08:25:55;100732.94;;;23.01;100.00
56174;BME280;42058;52.308;20.924;2022-07-06T08:28:21;100731.80;;;23.11;100.00
56174;BME280;42058;52.308;20.924;2022-07-06T08:30:47;100732.70;;;23.17;100.00
56174;BME280;42058;52.308;20.924;2022-07-06T08:33:14;100724.69;;;23.28;100.00
56174;BME280;42058;52.308;20.924;2022-07-06T08:35:40;100730.08;;;23.34;100.00
56174;BME280;42058;52.308;20.924;2022-07-06T08:38:06;100716.17;;;23.40;100.00
56174;BME280;42058;52.308;20.924;2022-07-06T08:40:33;100721.12;;;23.52;100.00
56174;BME280;42058;52.308;20.924;2022-07-06T08:43:01;100720.07;;;23.66;100.00
56174;BME280;42058;52.308;20.924;2022-07-06T08:45:27;100721.55;;;23.75;97.09
56174;BME280;42058;52.308;20.924;2022-07-06T08:47:57;100722.70;;;23.84;93.21
56174;BME280;42058;52.308;20.924;2022-07-06T08:50:25;100724.67;;;23.93;94.76
56174;BME280;42058;52.308;20.924;2022-07-06T08:52:52;100727.38;;;24.05;94.54
56174;BME280;42058;52.308;20.924;2022-07-06T08:55:19;100718.81;;;24.16;93.86
56174;BME280;42058;52.308;20.924;2022-07-06T08:57:47;100723.23;;;24.23;91.37
56174;BME280;42058;52.308;20.924;2022-07-06T09:00:14;100731.06;;;24.26;90.31
56174;BME280;42058;52.308;20.924;2022-07-06T09:02:41;100732.75;;;24.33;88.66
56174;BME280;42058;52.308;20.924;2022-07-06T09:05:09;100734.47;;;24.40;88.40
56174;BME280;42058;52.308;20.924;2022-07-06T09:07:40;100731.16;;;24.47;87.12
56174;BME280;42058;52.308;20.924;2022-07-06T09:10:08;100730.22;;;24.54;85.14
56174;BME280;42058;52.308;20.924;2022-07-06T09:12:34;100734.12;;;24.61;84.81
56174;BME280;42058;52.308;20.924;2022-07-06T09:15:00;100728.96;;;24.69;83.14
56174;BME280;42058;52.308;20.924;2022-07-06T09:17:28;100723.59;;;24.81;83.00
56174;BME280;42058;52.308;20.924;2022-07-06T09:19:55;100729.28;;;24.93;82.80
56174;BME280;42058;52.308;20.924;2022-07-06T09:22:30;100723.86;;;25.04;81.71
56174;BME280;42058;52.308;20.924;2022-07-06T09:25:11;100720.78;;;25.14;80.76
56174;BME280;42058;52.308;20.924;2022-07-06T09:27:44;100726.77;;;25.24;79.26
56174;BME280;42058;52.308;20.924;2022-07-06T09:30:21;100725.41;;;25.29;77.68
56174;BME280;42058;52.308;20.924;2022-07-06T09:32:53;100716.38;;;25.25;76.06
56174;BME280;42058;52.308;20.924;2022-07-06T09:38:10;100718.59;;;25.14;71.82
56174;BME280;42058;52.308;20.924;2022-07-06T09:40:39;100723.72;;;25.11;74.07
56174;BME280;42058;52.308;20.924;2022-07-06T09:45:45;100711.73;;;25.16;73.06
56174;BME280;42058;52.308;20.924;2022-07-06T09:48:15;100709.64;;;25.25;72.51
56174;BME280;42058;52.308;20.924;2022-07-06T09:50:49;100709.23;;;25.29;70.90
56174;BME280;42058;52.308;20.924;2022-07-06T09:53:20;100713.78;;;25.29;69.58
56174;BME280;42058;52.308;20.924;2022-07-06T09:55:49;100717.92;;;25.33;69.46
56174;BME280;42058;52.308;20.924;2022-07-06T09:58:20;100707.42;;;25.30;69.94
56174;BME280;42058;52.308;20.924;2022-07-06T10:00:47;100714.25;;;25.34;67.58
56174;BME280;42058;52.308;20.924;2022-07-06T10:03:15;100713.62;;;25.36;66.59
56174;BME280;42058;52.308;20.924;2022-07-06T10:05:47;100706.27;;;25.38;63.65
56174;BME280;42058;52.308;20.924;2022-07-06T10:08:15;100706.62;;;25.45;65.44
56174;BME280;42058;52.308;20.924;2022-07-06T10:10:43;100705.27;;;25.45;63.93
56174;BME280;42058;52.308;20.924;2022-07-06T10:13:10;100711.03;;;25.40;62.93
56174;BME280;42058;52.308;20.924;2022-07-06T10:15:39;100706.89;;;25.36;60.51
56174;BME280;42058;52.308;20.924;2022-07-06T10:18:09;100708.77;;;25.30;60.62
56174;BME280;42058;52.308;20.924;2022-07-06T10:20:37;100713.90;;;25.22;62.24
56174;BME280;42058;52.308;20.924;2022-07-06T10:23:07;100708.66;;;25.14;61.10
56174;BME280;42058;52.308;20.924;2022-07-06T10:25:35;100715.42;;;25.09;62.61
56174;BME280;42058;52.308;20.924;2022-07-06T10:28:01;100710.05;;;25.03;61.78
56174;BME280;42058;52.308;20.924;2022-07-06T10:30:28;100727.30;;;25.01;62.84
56174;BME280;42058;52.308;20.924;2022-07-06T10:32:57;100721.93;;;24.95;61.26
56174;BME280;42058;52.308;20.924;2022-07-06T10:35:24;100723.67;;;24.90;62.31
56174;BME280;42058;52.308;20.924;2022-07-06T10:38:07;100727.95;;;24.87;62.73
56174;BME280;42058;52.308;20.924;2022-07-06T10:40:35;100719.53;;;24.86;62.04
56174;BME280;42058;52.308;20.924;2022-07-06T10:43:21;100724.02;;;24.91;63.33
56174;BME280;42058;52.308;20.924;2022-07-06T10:45:50;100713.48;;;25.00;63.96
56174;BME280;42058;52.308;20.924;2022-07-06T10:48:17;100714.81;;;25.05;61.41
56174;BME280;42058;52.308;20.924;2022-07-06T10:50:53;100718.48;;;25.04;59.26
56174;BME280;42058;52.308;20.924;2022-07-06T10:53:24;100720.45;;;25.02;57.82
56174;BME280;42058;52.308;20.924;2022-07-06T10:55:56;100725.48;;;25.01;57.97
56174;BME280;42058;52.308;20.924;2022-07-06T11:01:10;100732.84;;;24.99;59.45
56174;BME280;42058;52.308;20.924;2022-07-06T11:03:45;100728.52;;;25.02;59.57
56174;BME280;42058;52.308;20.924;2022-07-06T11:06:21;100720.20;;;25.05;58.91
56174;BME280;42058;52.308;20.924;2022-07-06T11:11:26;100726.16;;;25.14;59.14
56174;BME280;42058;52.308;20.924;2022-07-06T11:19:21;100720.89;;;25.24;58.33
56174;BME280;42058;52.308;20.924;2022-07-06T11:21:54;100730.69;;;25.25;58.08
56174;BME280;42058;52.308;20.924;2022-07-06T11:24:40;100723.57;;;25.19;57.00
56174;BME280;42058;52.308;20.924;2022-07-06T11:27:07;100721.78;;;25.13;56.57
56174;BME280;42058;52.308;20.924;2022-07-06T11:29:35;100733.14;;;25.11;57.48
56174;BME280;42058;52.308;20.924;2022-07-06T11:32:03;100731.07;;;25.09;56.45
56174;BME280;42058;52.308;20.924;2022-07-06T11:34:32;100723.62;;;25.07;56.87
56174;BME280;42058;52.308;20.924;2022-07-06T11:37:07;100722.02;;;25.10;57.01
56174;BME280;42058;52.308;20.924;2022-07-06T11:39:36;100726.06;;;25.10;56.74
56174;BME280;42058;52.308;20.924;2022-07-06T11:42:06;100728.87;;;25.09;56.24
56174;BME280;42058;52.308;20.924;2022-07-06T11:44:33;100725.47;;;25.07;57.85
56174;BME280;42058;52.308;20.924;2022-07-06T11:47:00;100720.92;;;25.07;56.45
56174;BME280;42058;52.308;20.924;2022-07-06T11:49:30;100720.92;;;25.07;57.19
56174;BME280;42058;52.308;20.924;2022-07-06T11:51:57;100727.90;;;25.04;56.96
56174;BME280;42058;52.308;20.924;2022-07-06T11:54:25;100726.20;;;25.03;56.62
56174;BME280;42058;52.308;20.924;2022-07-06T11:56:58;100721.06;;;25.00;57.56
56174;BME280;42058;52.308;20.924;2022-07-06T11:59:30;100720.45;;;25.02;57.54
56174;BME280;42058;52.308;20.924;2022-07-06T12:04:33;100722.13;;;25.14;58.04
56174;BME280;42058;52.308;20.924;2022-07-06T12:07:05;100712.55;;;25.22;57.76
56174;BME280;42058;52.308;20.924;2022-07-06T12:09:35;100719.17;;;25.29;55.72
56174;BME280;42058;52.308;20.924;2022-07-06T12:12:03;100716.95;;;25.34;55.13
56174;BME280;42058;52.308;20.924;2022-07-06T12:14:32;100713.82;;;25.44;54.54
56174;BME280;42058;52.308;20.924;2022-07-06T12:17:04;100704.52;;;25.48;54.91
56174;BME280;42058;52.308;20.924;2022-07-06T12:19:31;100713.91;;;25.54;55.16
56174;BME280;42058;52.308;20.924;2022-07-06T12:21:58;100710.94;;;25.57;53.87
56174;BME280;42058;52.308;20.924;2022-07-06T12:24:28;100712.53;;;25.60;53.25
56174;BME280;42058;52.308;20.924;2022-07-06T12:27:22;100716.66;;;25.64;53.27
56174;BME280;42058;52.308;20.924;2022-07-06T12:29:45;100714.94;;;25.68;53.40
56174;BME280;42058;52.308;20.924;2022-07-06T12:32:20;100707.78;;;25.73;52.41
56174;BME280;42058;52.308;20.924;2022-07-06T12:37:34;100710.52;;;25.94;51.98
56174;BME280;42058;52.308;20.924;2022-07-06T12:40:04;100700.14;;;26.05;52.73
56174;BME280;42058;52.308;20.924;2022-07-06T12:42:32;100704.09;;;26.16;49.87
56174;BME280;42058;52.308;20.924;2022-07-06T12:45:03;100699.75;;;26.19;50.24
56174;BME280;42058;52.308;20.924;2022-07-06T12:47:33;100705.59;;;26.24;50.82
56174;BME280;42058;52.308;20.924;2022-07-06T12:50:08;100711.58;;;26.28;50.98
56174;BME280;42058;52.308;20.924;2022-07-06T12:52:36;100708.03;;;26.27;50.25
56174;BME280;42058;52.308;20.924;2022-07-06T12:55:04;100707.95;;;26.23;50.34
56174;BME280;42058;52.308;20.924;2022-07-06T12:57:47;100708.59;;;26.21;51.19
56174;BME280;42058;52.308;20.924;2022-07-06T13:00:15;100712.64;;;26.21;51.29